sensor_id;sensor_type;location;lat;lon;timestamp;temperature;humidity
9271;DHT22;4673;53.458;9.940;2024-03-06T00:00:57;1.40;49.80
9271;DHT22;4673;53.458;9.940;2024-03-06T00:03:23;1.30;49.90
9271;DHT22;4673;53.458;9.940;2024-03-06T00:05:48;1.30;50.10
9271;DHT22;4673;53.458;9.940;2024-03-06T00:08:14;1.40;50.30
9271;DHT22;4673;53.458;9.940;2024-03-06T00:10:41;1.40;50.20
9271;DHT22;4673;53.458;9.940;2024-03-06T00:13:08;1.40;50.30
9271;DHT22;4673;53.458;9.940;2024-03-06T00:15:33;1.40;50.10
9271;DHT22;4673;53.458;9.940;2024-03-06T00:17:59;1.40;50.30
9271;DHT22;4673;53.458;9.940;2024-03-06T00:20:26;1.40;50.20
9271;DHT22;4673;53.458;9.940;2024-03-06T00:22:51;1.50;50.00
9271;DHT22;4673;53.458;9.940;2024-03-06T00:25:17;1.40;49.80
9271;DHT22;4673;53.458;9.940;2024-03-06T00:27:42;1.30;49.60
9271;DHT22;4673;53.458;9.940;2024-03-06T00:30:08;1.20;49.60
9271;DHT22;4673;53.458;9.940;2024-03-06T00:32:34;1.10;49.50
9271;DHT22;4673;53.458;9.940;2024-03-06T00:35:00;1.00;49.60
9271;DHT22;4673;53.458;9.940;2024-03-06T00:37:25;1.00;49.70
9271;DHT22;4673;53.458;9.940;2024-03-06T00:39:51;1.00;50.10
9271;DHT22;4673;53.458;9.940;2024-03-06T00:42:17;0.90;50.30
9271;DHT22;4673;53.458;9.940;2024-03-06T00:44:43;0.90;50.70
9271;DHT22;4673;53.458;9.940;2024-03-06T00:47:08;1.00;51.20
9271;DHT22;4673;53.458;9.940;2024-03-06T00:49:34;1.00;51.40
9271;DHT22;4673;53.458;9.940;2024-03-06T00:51:59;1.00;51.80
9271;DHT22;4673;53.458;9.940;2024-03-06T00:54:25;1.10;52.10
9271;DHT22;4673;53.458;9.940;2024-03-06T00:56:51;1.20;52.20
9271;DHT22;4673;53.458;9.940;2024-03-06T00:59:16;1.20;52.10
9271;DHT22;4673;53.458;9.940;2024-03-06T01:01:42;1.30;52.50
9271;DHT22;4673;53.458;9.940;2024-03-06T01:04:08;1.40;52.30
9271;DHT22;4673;53.458;9.940;2024-03-06T01:06:34;1.50;52.30
9271;DHT22;4673;53.458;9.940;2024-03-06T01:08:59;1.50;52.20
9271;DHT22;4673;53.458;9.940;2024-03-06T01:11:25;1.60;52.00
9271;DHT22;4673;53.458;9.940;2024-03-06T01:13:52;1.60;51.70
9271;DHT22;4673;53.458;9.940;2024-03-06T01:16:18;1.60;51.70
9271;DHT22;4673;53.458;9.940;2024-03-06T01:18:43;1.60;51.50
9271;DHT22;4673;53.458;9.940;2024-03-06T01:21:09;1.60;51.40
9271;DHT22;4673;53.458;9.940;2024-03-06T01:23:35;1.70;51.60
9271;DHT22;4673;53.458;9.940;2024-03-06T01:26:01;1.70;51.40
9271;DHT22;4673;53.458;9.940;2024-03-06T01:28:26;1.80;51.40
9271;DHT22;4673;53.458;9.940;2024-03-06T01:30:52;1.80;51.40
9271;DHT22;4673;53.458;9.940;2024-03-06T01:33:18;1.80;51.00
9271;DHT22;4673;53.458;9.940;2024-03-06T01:35:43;1.80;50.60
9271;DHT22;4673;53.458;9.940;2024-03-06T01:38:09;1.80;50.40
9271;DHT22;4673;53.458;9.940;2024-03-06T01:40:35;1.60;50.30
9271;DHT22;4673;53.458;9.940;2024-03-06T01:43:01;1.80;50.50
9271;DHT22;4673;53.458;9.940;2024-03-06T01:45:27;1.70;50.50
9271;DHT22;4673;53.458;9.940;2024-03-06T01:47:53;1.70;50.40
9271;DHT22;4673;53.458;9.940;2024-03-06T01:50:19;1.80;50.40
9271;DHT22;4673;53.458;9.940;2024-03-06T01:52:45;1.70;50.50
9271;DHT22;4673;53.458;9.940;2024-03-06T01:55:12;1.60;50.30
9271;DHT22;4673;53.458;9.940;2024-03-06T01:57:39;1.70;50.60
9271;DHT22;4673;53.458;9.940;2024-03-06T02:00:08;1.70;50.60
9271;DHT22;4673;53.458;9.940;2024-03-06T02:02:41;1.80;50.60
9271;DHT22;4673;53.458;9.940;2024-03-06T02:05:06;1.70;50.70
9271;DHT22;4673;53.458;9.940;2024-03-06T02:07:32;1.80;50.60
9271;DHT22;4673;53.458;9.940;2024-03-06T02:09:58;1.80;50.40
9271;DHT22;4673;53.458;9.940;2024-03-06T02:12:24;1.80;50.30
9271;DHT22;4673;53.458;9.940;2024-03-06T02:14:50;1.80;50.10
9271;DHT22;4673;53.458;9.940;2024-03-06T02:17:16;1.60;49.80
9271;DHT22;4673;53.458;9.940;2024-03-06T02:19:43;1.60;49.90
9271;DHT22;4673;53.458;9.940;2024-03-06T02:22:09;1.50;49.90
9271;DHT22;4673;53.458;9.940;2024-03-06T02:24:36;1.40;50.00
9271;DHT22;4673;53.458;9.940;2024-03-06T02:27:05;1.30;50.30
9271;DHT22;4673;53.458;9.940;2024-03-06T02:29:32;1.20;50.10
9271;DHT22;4673;53.458;9.940;2024-03-06T02:31:59;1.10;50.30
9271;DHT22;4673;53.458;9.940;2024-03-06T02:34:24;1.00;50.30
9271;DHT22;4673;53.458;9.940;2024-03-06T02:36:51;0.90;50.50
9271;DHT22;4673;53.458;9.940;2024-03-06T02:39:17;0.80;51.00
9271;DHT22;4673;53.458;9.940;2024-03-06T02:41:43;0.70;51.20
9271;DHT22;4673;53.458;9.940;2024-03-06T02:44:09;0.60;51.20
9271;DHT22;4673;53.458;9.940;2024-03-06T02:46:35;0.60;51.70
9271;DHT22;4673;53.458;9.940;2024-03-06T02:49:00;0.50;52.10
9271;DHT22;4673;53.458;9.940;2024-03-06T02:51:26;0.50;52.30
9271;DHT22;4673;53.458;9.940;2024-03-06T02:53:52;0.40;52.60
9271;DHT22;4673;53.458;9.940;2024-03-06T02:56:19;0.40;52.70
9271;DHT22;4673;53.458;9.940;2024-03-06T02:58:45;0.30;52.90
9271;DHT22;4673;53.458;9.940;2024-03-06T03:01:11;0.30;53.10
9271;DHT22;4673;53.458;9.940;2024-03-06T03:03:40;0.20;53.40
9271;DHT22;4673;53.458;9.940;2024-03-06T03:06:07;0.10;53.60
9271;DHT22;4673;53.458;9.940;2024-03-06T03:08:32;0.10;53.80
9271;DHT22;4673;53.458;9.940;2024-03-06T03:10:58;0.10;54.00
9271;DHT22;4673;53.458;9.940;2024-03-06T03:13:24;0.00;54.20
9271;DHT22;4673;53.458;9.940;2024-03-06T03:15:49;0.00;54.60
9271;DHT22;4673;53.458;9.940;2024-03-06T03:18:16;0.00;54.90
9271;DHT22;4673;53.458;9.940;2024-03-06T03:20:42;0.00;55.00
9271;DHT22;4673;53.458;9.940;2024-03-06T03:23:08;-0.10;55.10
9271;DHT22;4673;53.458;9.940;2024-03-06T03:25:37;-0.10;55.20
9271;DHT22;4673;53.458;9.940;2024-03-06T03:28:03;-0.10;55.70
9271;DHT22;4673;53.458;9.940;2024-03-06T03:30:29;-0.10;55.90
9271;DHT22;4673;53.458;9.940;2024-03-06T03:32:54;-0.10;56.00
9271;DHT22;4673;53.458;9.940;2024-03-06T03:35:20;-0.10;55.80
9271;DHT22;4673;53.458;9.940;2024-03-06T03:37:53;-0.20;55.80
9271;DHT22;4673;53.458;9.940;2024-03-06T03:40:19;-0.20;56.00
9271;DHT22;4673;53.458;9.940;2024-03-06T03:42:45;-0.10;56.20
9271;DHT22;4673;53.458;9.940;2024-03-06T03:45:10;-0.30;56.40
9271;DHT22;4673;53.458;9.940;2024-03-06T03:47:36;-0.30;56.60
9271;DHT22;4673;53.458;9.940;2024-03-06T03:50:02;-0.30;56.90
9271;DHT22;4673;53.458;9.940;2024-03-06T03:52:29;-0.30;57.20
9271;DHT22;4673;53.458;9.940;2024-03-06T03:54:55;-0.30;57.30
9271;DHT22;4673;53.458;9.940;2024-03-06T03:57:21;-0.30;57.50
9271;DHT22;4673;53.458;9.940;2024-03-06T03:59:46;-0.30;57.80
9271;DHT22;4673;53.458;9.940;2024-03-06T04:02:12;-0.30;58.00
9271;DHT22;4673;53.458;9.940;2024-03-06T04:04:37;-0.30;58.10
9271;DHT22;4673;53.458;9.940;2024-03-06T04:07:03;-0.40;58.10
9271;DHT22;4673;53.458;9.940;2024-03-06T04:09:32;-0.30;58.30
9271;DHT22;4673;53.458;9.940;2024-03-06T04:12:01;-0.30;58.50
9271;DHT22;4673;53.458;9.940;2024-03-06T04:14:29;-0.30;58.70
9271;DHT22;4673;53.458;9.940;2024-03-06T04:16:56;-0.40;58.60
9271;DHT22;4673;53.458;9.940;2024-03-06T04:19:21;-0.30;59.00
9271;DHT22;4673;53.458;9.940;2024-03-06T04:21:47;-0.30;59.00
9271;DHT22;4673;53.458;9.940;2024-03-06T04:24:13;-0.30;59.00
9271;DHT22;4673;53.458;9.940;2024-03-06T04:26:38;-0.40;59.00
9271;DHT22;4673;53.458;9.940;2024-03-06T04:29:04;-0.40;59.30
9271;DHT22;4673;53.458;9.940;2024-03-06T04:31:29;-0.30;59.70
9271;DHT22;4673;53.458;9.940;2024-03-06T04:33:55;-0.30;59.70
9271;DHT22;4673;53.458;9.940;2024-03-06T04:36:20;-0.20;60.10
9271;DHT22;4673;53.458;9.940;2024-03-06T04:38:46;-0.20;60.00
9271;DHT22;4673;53.458;9.940;2024-03-06T04:41:12;-0.20;60.10
9271;DHT22;4673;53.458;9.940;2024-03-06T04:43:37;-0.20;60.20
9271;DHT22;4673;53.458;9.940;2024-03-06T04:46:03;-0.10;60.40
9271;DHT22;4673;53.458;9.940;2024-03-06T04:48:29;-0.20;60.30
9271;DHT22;4673;53.458;9.940;2024-03-06T04:50:55;-0.20;60.40
9271;DHT22;4673;53.458;9.940;2024-03-06T04:53:22;-0.20;60.50
9271;DHT22;4673;53.458;9.940;2024-03-06T04:55:47;-0.20;60.80
9271;DHT22;4673;53.458;9.940;2024-03-06T04:58:13;0.00;61.50
9271;DHT22;4673;53.458;9.940;2024-03-06T05:00:39;0.10;61.90
9271;DHT22;4673;53.458;9.940;2024-03-06T05:03:05;0.10;61.60
9271;DHT22;4673;53.458;9.940;2024-03-06T05:05:30;0.00;61.40
9271;DHT22;4673;53.458;9.940;2024-03-06T05:07:57;-0.10;61.30
9271;DHT22;4673;53.458;9.940;2024-03-06T05:10:23;-0.20;61.10
9271;DHT22;4673;53.458;9.940;2024-03-06T05:12:49;-0.20;61.00
9271;DHT22;4673;53.458;9.940;2024-03-06T05:15:15;-0.40;60.90
9271;DHT22;4673;53.458;9.940;2024-03-06T05:17:41;-0.40;61.00
9271;DHT22;4673;53.458;9.940;2024-03-06T05:20:07;-0.40;61.20
9271;DHT22;4673;53.458;9.940;2024-03-06T05:22:33;-0.40;61.30
9271;DHT22;4673;53.458;9.940;2024-03-06T05:24:58;-0.40;61.50
9271;DHT22;4673;53.458;9.940;2024-03-06T05:27:25;-0.50;61.50
9271;DHT22;4673;53.458;9.940;2024-03-06T05:29:51;-0.50;61.50
9271;DHT22;4673;53.458;9.940;2024-03-06T05:32:17;-0.50;61.70
9271;DHT22;4673;53.458;9.940;2024-03-06T05:34:43;-0.50;61.90
9271;DHT22;4673;53.458;9.940;2024-03-06T05:37:10;-0.50;62.00
9271;DHT22;4673;53.458;9.940;2024-03-06T05:39:36;-0.50;61.90
9271;DHT22;4673;53.458;9.940;2024-03-06T05:42:04;-0.60;61.90
9271;DHT22;4673;53.458;9.940;2024-03-06T05:44:30;-0.50;62.30
9271;DHT22;4673;53.458;9.940;2024-03-06T05:46:58;-0.60;62.10
9271;DHT22;4673;53.458;9.940;2024-03-06T05:49:24;-0.60;62.20
9271;DHT22;4673;53.458;9.940;2024-03-06T05:51:50;-0.60;62.30
9271;DHT22;4673;53.458;9.940;2024-03-06T05:54:16;-0.60;62.40
9271;DHT22;4673;53.458;9.940;2024-03-06T05:56:42;-0.60;62.60
9271;DHT22;4673;53.458;9.940;2024-03-06T05:59:08;-0.50;63.00
9271;DHT22;4673;53.458;9.940;2024-03-06T06:01:36;-0.50;63.10
9271;DHT22;4673;53.458;9.940;2024-03-06T06:04:02;-0.40;63.10
9271;DHT22;4673;53.458;9.940;2024-03-06T06:06:28;-0.40;63.10
9271;DHT22;4673;53.458;9.940;2024-03-06T06:08:53;-0.50;63.20
9271;DHT22;4673;53.458;9.940;2024-03-06T06:11:19;-0.40;63.30
9271;DHT22;4673;53.458;9.940;2024-03-06T06:13:45;-0.30;63.60
9271;DHT22;4673;53.458;9.940;2024-03-06T06:16:11;-0.30;63.70
9271;DHT22;4673;53.458;9.940;2024-03-06T06:18:37;-0.20;63.70
9271;DHT22;4673;53.458;9.940;2024-03-06T06:21:02;-0.20;63.80
9271;DHT22;4673;53.458;9.940;2024-03-06T06:23:32;-0.10;64.10
9271;DHT22;4673;53.458;9.940;2024-03-06T06:25:58;-0.10;64.20
9271;DHT22;4673;53.458;9.940;2024-03-06T06:28:24;0.10;64.40
9271;DHT22;4673;53.458;9.940;2024-03-06T06:30:50;0.10;64.40
9271;DHT22;4673;53.458;9.940;2024-03-06T06:33:18;0.20;64.30
9271;DHT22;4673;53.458;9.940;2024-03-06T06:35:44;0.30;64.50
9271;DHT22;4673;53.458;9.940;2024-03-06T06:38:10;0.40;64.60
9271;DHT22;4673;53.458;9.940;2024-03-06T06:40:35;0.50;64.90
9271;DHT22;4673;53.458;9.940;2024-03-06T06:43:01;0.60;64.90
9271;DHT22;4673;53.458;9.940;2024-03-06T06:45:27;0.80;65.00
9271;DHT22;4673;53.458;9.940;2024-03-06T06:47:52;0.80;64.90
9271;DHT22;4673;53.458;9.940;2024-03-06T06:50:18;0.90;65.00
9271;DHT22;4673;53.458;9.940;2024-03-06T06:52:47;1.00;64.90
9271;DHT22;4673;53.458;9.940;2024-03-06T06:55:13;1.10;64.90
9271;DHT22;4673;53.458;9.940;2024-03-06T06:57:38;1.30;65.10
9271;DHT22;4673;53.458;9.940;2024-03-06T07:00:05;1.40;65.10
9271;DHT22;4673;53.458;9.940;2024-03-06T07:02:38;1.50;65.00
9271;DHT22;4673;53.458;9.940;2024-03-06T07:05:07;1.70;65.20
9271;DHT22;4673;53.458;9.940;2024-03-06T07:07:34;1.80;65.00
9271;DHT22;4673;53.458;9.940;2024-03-06T07:10:00;1.90;64.90
9271;DHT22;4673;53.458;9.940;2024-03-06T07:12:26;2.00;64.80
9271;DHT22;4673;53.458;9.940;2024-03-06T07:14:52;2.10;64.50
9271;DHT22;4673;53.458;9.940;2024-03-06T07:17:18;2.20;64.50
9271;DHT22;4673;53.458;9.940;2024-03-06T07:19:43;2.30;64.20
9271;DHT22;4673;53.458;9.940;2024-03-06T07:22:12;2.40;63.80
9271;DHT22;4673;53.458;9.940;2024-03-06T07:24:37;2.50;63.60
9271;DHT22;4673;53.458;9.940;2024-03-06T07:27:03;2.40;62.70
9271;DHT22;4673;53.458;9.940;2024-03-06T07:29:29;2.40;62.40
9271;DHT22;4673;53.458;9.940;2024-03-06T07:31:55;2.60;62.70
9271;DHT22;4673;53.458;9.940;2024-03-06T07:34:20;2.70;62.60
9271;DHT22;4673;53.458;9.940;2024-03-06T07:36:49;2.80;61.80
9271;DHT22;4673;53.458;9.940;2024-03-06T07:39:19;2.80;61.40
9271;DHT22;4673;53.458;9.940;2024-03-06T07:41:45;2.80;61.40
9271;DHT22;4673;53.458;9.940;2024-03-06T07:44:11;3.10;61.70
9271;DHT22;4673;53.458;9.940;2024-03-06T07:46:37;3.30;61.50
9271;DHT22;4673;53.458;9.940;2024-03-06T07:49:03;3.50;61.30
9271;DHT22;4673;53.458;9.940;2024-03-06T07:51:32;3.60;60.40
9271;DHT22;4673;53.458;9.940;2024-03-06T07:53:58;3.70;59.60
9271;DHT22;4673;53.458;9.940;2024-03-06T07:56:27;3.90;59.10
9271;DHT22;4673;53.458;9.940;2024-03-06T07:58:53;4.00;57.70
9271;DHT22;4673;53.458;9.940;2024-03-06T08:01:20;4.00;56.60
9271;DHT22;4673;53.458;9.940;2024-03-06T08:03:46;4.10;56.00
9271;DHT22;4673;53.458;9.940;2024-03-06T08:06:12;4.00;54.40
9271;DHT22;4673;53.458;9.940;2024-03-06T08:08:41;4.10;54.10
9271;DHT22;4673;53.458;9.940;2024-03-06T08:11:12;4.10;53.70
9271;DHT22;4673;53.458;9.940;2024-03-06T08:13:39;4.10;52.10
9271;DHT22;4673;53.458;9.940;2024-03-06T08:16:08;4.10;52.00
9271;DHT22;4673;53.458;9.940;2024-03-06T08:18:34;4.10;51.50
9271;DHT22;4673;53.458;9.940;2024-03-06T08:21:01;4.10;51.00
9271;DHT22;4673;53.458;9.940;2024-03-06T08:23:27;4.00;49.70
9271;DHT22;4673;53.458;9.940;2024-03-06T08:25:52;4.00;50.00
9271;DHT22;4673;53.458;9.940;2024-03-06T08:28:18;3.80;49.80
9271;DHT22;4673;53.458;9.940;2024-03-06T08:30:44;3.90;50.30
9271;DHT22;4673;53.458;9.940;2024-03-06T08:33:10;4.00;50.80
9271;DHT22;4673;53.458;9.940;2024-03-06T08:35:36;4.00;50.20
9271;DHT22;4673;53.458;9.940;2024-03-06T08:38:02;3.90;50.00
9271;DHT22;4673;53.458;9.940;2024-03-06T08:40:27;4.00;50.40
9271;DHT22;4673;53.458;9.940;2024-03-06T08:42:54;3.90;50.30
9271;DHT22;4673;53.458;9.940;2024-03-06T08:45:20;3.90;50.30
9271;DHT22;4673;53.458;9.940;2024-03-06T08:47:47;4.00;50.60
9271;DHT22;4673;53.458;9.940;2024-03-06T08:50:14;4.10;51.00
9271;DHT22;4673;53.458;9.940;2024-03-06T08:52:40;4.20;51.10
9271;DHT22;4673;53.458;9.940;2024-03-06T08:55:07;4.20;49.50
9271;DHT22;4673;53.458;9.940;2024-03-06T08:57:36;4.20;49.20
9271;DHT22;4673;53.458;9.940;2024-03-06T09:00:03;4.30;49.30
9271;DHT22;4673;53.458;9.940;2024-03-06T09:02:29;4.40;48.90
9271;DHT22;4673;53.458;9.940;2024-03-06T09:04:56;4.50;48.50
9271;DHT22;4673;53.458;9.940;2024-03-06T09:07:22;4.60;48.10
9271;DHT22;4673;53.458;9.940;2024-03-06T09:09:51;4.60;46.70
9271;DHT22;4673;53.458;9.940;2024-03-06T09:12:17;4.60;45.80
9271;DHT22;4673;53.458;9.940;2024-03-06T09:14:43;4.60;46.20
9271;DHT22;4673;53.458;9.940;2024-03-06T09:17:10;4.80;45.40
9271;DHT22;4673;53.458;9.940;2024-03-06T09:19:38;5.00;45.20
9271;DHT22;4673;53.458;9.940;2024-03-06T09:22:04;5.20;44.40
9271;DHT22;4673;53.458;9.940;2024-03-06T09:24:29;5.40;42.10
9271;DHT22;4673;53.458;9.940;2024-03-06T09:26:55;5.60;40.90
9271;DHT22;4673;53.458;9.940;2024-03-06T09:29:21;5.50;38.00
9271;DHT22;4673;53.458;9.940;2024-03-06T09:31:47;5.50;38.10
9271;DHT22;4673;53.458;9.940;2024-03-06T09:34:14;5.40;37.30
9271;DHT22;4673;53.458;9.940;2024-03-06T09:36:49;5.40;38.40
9271;DHT22;4673;53.458;9.940;2024-03-06T09:39:16;5.60;38.30
9271;DHT22;4673;53.458;9.940;2024-03-06T09:41:46;5.70;36.30
9271;DHT22;4673;53.458;9.940;2024-03-06T09:44:12;5.70;36.00
9271;DHT22;4673;53.458;9.940;2024-03-06T09:46:45;5.80;35.10
9271;DHT22;4673;53.458;9.940;2024-03-06T09:49:11;5.90;34.90
9271;DHT22;4673;53.458;9.940;2024-03-06T09:51:39;6.00;32.10
9271;DHT22;4673;53.458;9.940;2024-03-06T09:54:07;6.00;32.80
9271;DHT22;4673;53.458;9.940;2024-03-06T09:56:35;6.20;32.90
9271;DHT22;4673;53.458;9.940;2024-03-06T09:59:00;6.30;32.40
9271;DHT22;4673;53.458;9.940;2024-03-06T10:01:27;6.50;29.90
9271;DHT22;4673;53.458;9.940;2024-03-06T10:03:54;6.60;27.50
9271;DHT22;4673;53.458;9.940;2024-03-06T10:06:20;6.50;25.80
9271;DHT22;4673;53.458;9.940;2024-03-06T10:08:46;6.30;25.70
9271;DHT22;4673;53.458;9.940;2024-03-06T10:11:12;6.30;25.10
9271;DHT22;4673;53.458;9.940;2024-03-06T10:13:37;6.30;25.80
9271;DHT22;4673;53.458;9.940;2024-03-06T10:16:04;6.40;24.20
9271;DHT22;4673;53.458;9.940;2024-03-06T10:18:34;6.20;23.80
9271;DHT22;4673;53.458;9.940;2024-03-06T10:21:00;6.10;22.90
9271;DHT22;4673;53.458;9.940;2024-03-06T10:23:26;6.10;23.00
9271;DHT22;4673;53.458;9.940;2024-03-06T10:25:54;6.00;23.10
9271;DHT22;4673;53.458;9.940;2024-03-06T10:28:22;6.10;22.40
9271;DHT22;4673;53.458;9.940;2024-03-06T10:30:49;6.20;22.20
9271;DHT22;4673;53.458;9.940;2024-03-06T10:33:16;6.20;21.80
9271;DHT22;4673;53.458;9.940;2024-03-06T10:35:45;6.30;22.10
9271;DHT22;4673;53.458;9.940;2024-03-06T10:38:11;6.40;21.30
9271;DHT22;4673;53.458;9.940;2024-03-06T10:40:39;6.40;19.80
9271;DHT22;4673;53.458;9.940;2024-03-06T10:43:06;6.30;20.70
9271;DHT22;4673;53.458;9.940;2024-03-06T10:45:46;6.20;18.30
9271;DHT22;4673;53.458;9.940;2024-03-06T10:48:17;6.10;18.60
9271;DHT22;4673;53.458;9.940;2024-03-06T10:50:44;6.10;18.80
9271;DHT22;4673;53.458;9.940;2024-03-06T10:53:12;6.10;17.50
9271;DHT22;4673;53.458;9.940;2024-03-06T10:55:38;5.90;17.90
9271;DHT22;4673;53.458;9.940;2024-03-06T10:58:08;5.90;19.70
9271;DHT22;4673;53.458;9.940;2024-03-06T11:00:45;5.80;19.80
9271;DHT22;4673;53.458;9.940;2024-03-06T11:03:14;5.90;20.90
9271;DHT22;4673;53.458;9.940;2024-03-06T11:05:41;5.90;20.70
9271;DHT22;4673;53.458;9.940;2024-03-06T11:08:09;6.00;20.20
9271;DHT22;4673;53.458;9.940;2024-03-06T11:10:36;6.10;19.40
9271;DHT22;4673;53.458;9.940;2024-03-06T11:13:03;6.20;19.40
9271;DHT22;4673;53.458;9.940;2024-03-06T11:15:30;6.30;19.00
9271;DHT22;4673;53.458;9.940;2024-03-06T11:17:57;6.40;19.00
9271;DHT22;4673;53.458;9.940;2024-03-06T11:20:23;6.40;18.80
9271;DHT22;4673;53.458;9.940;2024-03-06T11:28:17;6.70;18.60
9271;DHT22;4673;53.458;9.940;2024-03-06T11:31:05;6.70;18.40
9271;DHT22;4673;53.458;9.940;2024-03-06T11:33:41;6.80;18.40
9271;DHT22;4673;53.458;9.940;2024-03-06T11:39:04;6.80;17.10
9271;DHT22;4673;53.458;9.940;2024-03-06T11:44:01;7.00;17.80
9271;DHT22;4673;53.458;9.940;2024-03-06T11:46:44;7.10;17.50
9271;DHT22;4673;53.458;9.940;2024-03-06T11:49:21;7.10;15.40
9271;DHT22;4673;53.458;9.940;2024-03-06T11:51:47;7.10;15.90
9271;DHT22;4673;53.458;9.940;2024-03-06T11:54:14;7.10;16.30
9271;DHT22;4673;53.458;9.940;2024-03-06T11:56:40;7.20;16.30
9271;DHT22;4673;53.458;9.940;2024-03-06T11:59:06;7.30;16.40
9271;DHT22;4673;53.458;9.940;2024-03-06T12:01:38;7.30;16.00
9271;DHT22;4673;53.458;9.940;2024-03-06T12:04:04;7.30;15.70
9271;DHT22;4673;53.458;9.940;2024-03-06T12:06:32;7.40;15.70
9271;DHT22;4673;53.458;9.940;2024-03-06T12:08:58;7.40;14.70
9271;DHT22;4673;53.458;9.940;2024-03-06T12:11:24;7.40;15.20
9271;DHT22;4673;53.458;9.940;2024-03-06T12:13:54;7.40;15.40
9271;DHT22;4673;53.458;9.940;2024-03-06T12:16:21;7.40;14.50
9271;DHT22;4673;53.458;9.940;2024-03-06T12:18:53;7.40;14.30
9271;DHT22;4673;53.458;9.940;2024-03-06T12:21:19;7.40;14.50
9271;DHT22;4673;53.458;9.940;2024-03-06T12:23:44;7.50;14.90
9271;DHT22;4673;53.458;9.940;2024-03-06T12:26:10;7.60;14.00
9271;DHT22;4673;53.458;9.940;2024-03-06T12:28:39;7.70;13.50
9271;DHT22;4673;53.458;9.940;2024-03-06T12:31:08;7.80;12.70
9271;DHT22;4673;53.458;9.940;2024-03-06T12:33:34;7.80;11.50
9271;DHT22;4673;53.458;9.940;2024-03-06T12:36:04;7.80;10.20
9271;DHT22;4673;53.458;9.940;2024-03-06T12:38:30;7.60;11.50
9271;DHT22;4673;53.458;9.940;2024-03-06T12:40:56;7.60;12.50
9271;DHT22;4673;53.458;9.940;2024-03-06T12:43:23;7.70;12.40
9271;DHT22;4673;53.458;9.940;2024-03-06T12:45:49;7.80;11.40
9271;DHT22;4673;53.458;9.940;2024-03-06T12:48:15;7.80;10.90
9271;DHT22;4673;53.458;9.940;2024-03-06T12:50:40;7.80;11.00
9271;DHT22;4673;53.458;9.940;2024-03-06T12:53:07;7.90;10.70
9271;DHT22;4673;53.458;9.940;2024-03-06T12:55:34;7.90;10.40
9271;DHT22;4673;53.458;9.940;2024-03-06T12:58:01;7.90;10.70
9271;DHT22;4673;53.458;9.940;2024-03-06T13:00:27;7.90;10.40
9271;DHT22;4673;53.458;9.940;2024-03-06T13:02:53;7.90;10.30
9271;DHT22;4673;53.458;9.940;2024-03-06T13:05:19;7.90;10.30
9271;DHT22;4673;53.458;9.940;2024-03-06T13:07:45;8.00;10.40
9271;DHT22;4673;53.458;9.940;2024-03-06T13:10:11;8.10;10.20
9271;DHT22;4673;53.458;9.940;2024-03-06T13:12:38;8.20;10.60
9271;DHT22;4673;53.458;9.940;2024-03-06T13:15:04;8.40;8.80
9271;DHT22;4673;53.458;9.940;2024-03-06T13:17:30;8.40;7.50
9271;DHT22;4673;53.458;9.940;2024-03-06T13:19:56;8.40;7.20
9271;DHT22;4673;53.458;9.940;2024-03-06T13:22:22;8.40;7.10
9271;DHT22;4673;53.458;9.940;2024-03-06T13:24:48;8.40;6.90
9271;DHT22;4673;53.458;9.940;2024-03-06T13:27:14;8.40;7.70
9271;DHT22;4673;53.458;9.940;2024-03-06T13:29:39;8.60;6.80
9271;DHT22;4673;53.458;9.940;2024-03-06T13:32:07;8.60;6.80
9271;DHT22;4673;53.458;9.940;2024-03-06T13:34:33;8.50;6.60
9271;DHT22;4673;53.458;9.940;2024-03-06T13:36:59;8.40;6.20
9271;DHT22;4673;53.458;9.940;2024-03-06T13:39:25;8.30;6.40
9271;DHT22;4673;53.458;9.940;2024-03-06T13:41:51;8.40;6.10
9271;DHT22;4673;53.458;9.940;2024-03-06T13:44:18;8.40;5.30
9271;DHT22;4673;53.458;9.940;2024-03-06T13:46:44;8.40;5.30
9271;DHT22;4673;53.458;9.940;2024-03-06T13:52:00;8.40;7.00
9271;DHT22;4673;53.458;9.940;2024-03-06T13:54:26;8.40;7.00
9271;DHT22;4673;53.458;9.940;2024-03-06T13:56:52;8.60;7.30
9271;DHT22;4673;53.458;9.940;2024-03-06T13:59:19;8.70;6.20
9271;DHT22;4673;53.458;9.940;2024-03-06T14:01:45;8.70;6.20
9271;DHT22;4673;53.458;9.940;2024-03-06T14:04:10;8.80;6.30
9271;DHT22;4673;53.458;9.940;2024-03-06T14:06:36;8.80;5.00
9271;DHT22;4673;53.458;9.940;2024-03-06T14:09:01;8.90;5.10
9271;DHT22;4673;53.458;9.940;2024-03-06T14:11:27;8.90;5.00
9271;DHT22;4673;53.458;9.940;2024-03-06T14:13:53;8.90;5.00
9271;DHT22;4673;53.458;9.940;2024-03-06T14:16:19;8.80;5.00
9271;DHT22;4673;53.458;9.940;2024-03-06T14:18:45;8.70;5.00
9271;DHT22;4673;53.458;9.940;2024-03-06T14:21:11;8.60;5.40
9271;DHT22;4673;53.458;9.940;2024-03-06T14:23:36;8.40;5.50
9271;DHT22;4673;53.458;9.940;2024-03-06T14:26:02;8.30;6.40
9271;DHT22;4673;53.458;9.940;2024-03-06T14:28:27;8.30;6.70
9271;DHT22;4673;53.458;9.940;2024-03-06T14:30:53;8.10;6.40
9271;DHT22;4673;53.458;9.940;2024-03-06T14:33:19;8.00;7.20
9271;DHT22;4673;53.458;9.940;2024-03-06T14:35:44;8.00;7.40
9271;DHT22;4673;53.458;9.940;2024-03-06T14:38:11;7.90;7.70
9271;DHT22;4673;53.458;9.940;2024-03-06T14:40:38;7.90;7.40
9271;DHT22;4673;53.458;9.940;2024-03-06T14:43:04;7.80;7.40
9271;DHT22;4673;53.458;9.940;2024-03-06T14:45:34;7.70;7.50
9271;DHT22;4673;53.458;9.940;2024-03-06T14:48:00;7.60;8.20
9271;DHT22;4673;53.458;9.940;2024-03-06T14:50:25;7.70;8.20
9271;DHT22;4673;53.458;9.940;2024-03-06T14:52:52;7.60;7.40
9271;DHT22;4673;53.458;9.940;2024-03-06T14:55:18;7.50;7.60
9271;DHT22;4673;53.458;9.940;2024-03-06T14:57:44;7.60;8.10
9271;DHT22;4673;53.458;9.940;2024-03-06T15:00:10;7.60;8.10
9271;DHT22;4673;53.458;9.940;2024-03-06T15:02:37;7.60;7.90
9271;DHT22;4673;53.458;9.940;2024-03-06T15:05:02;7.60;7.60
9271;DHT22;4673;53.458;9.940;2024-03-06T15:07:29;7.60;7.40
9271;DHT22;4673;53.458;9.940;2024-03-06T15:09:55;7.60;7.20
9271;DHT22;4673;53.458;9.940;2024-03-06T15:12:23;7.60;7.00
9271;DHT22;4673;53.458;9.940;2024-03-06T15:14:48;7.60;7.00
9271;DHT22;4673;53.458;9.940;2024-03-06T15:17:14;7.50;6.70
9271;DHT22;4673;53.458;9.940;2024-03-06T15:19:40;7.50;7.20
9271;DHT22;4673;53.458;9.940;2024-03-06T15:22:05;7.50;6.90
9271;DHT22;4673;53.458;9.940;2024-03-06T15:24:31;7.40;7.10
9271;DHT22;4673;53.458;9.940;2024-03-06T15:26:57;7.30;7.10
9271;DHT22;4673;53.458;9.940;2024-03-06T15:29:23;7.30;7.10
9271;DHT22;4673;53.458;9.940;2024-03-06T15:31:48;7.20;7.10
9271;DHT22;4673;53.458;9.940;2024-03-06T15:34:14;7.20;7.40
9271;DHT22;4673;53.458;9.940;2024-03-06T15:36:40;7.20;7.70
9271;DHT22;4673;53.458;9.940;2024-03-06T15:39:05;7.20;7.70
9271;DHT22;4673;53.458;9.940;2024-03-06T15:41:32;7.20;7.80
9271;DHT22;4673;53.458;9.940;2024-03-06T15:43:57;7.10;8.00
9271;DHT22;4673;53.458;9.940;2024-03-06T15:46:23;7.00;8.60
9271;DHT22;4673;53.458;9.940;2024-03-06T15:48:51;7.00;9.00
9271;DHT22;4673;53.458;9.940;2024-03-06T15:51:17;7.00;9.10
9271;DHT22;4673;53.458;9.940;2024-03-06T15:53:42;7.00;8.60
9271;DHT22;4673;53.458;9.940;2024-03-06T15:56:08;6.90;9.00
9271;DHT22;4673;53.458;9.940;2024-03-06T15:58:35;6.80;9.00
9271;DHT22;4673;53.458;9.940;2024-03-06T16:01:01;6.80;9.20
9271;DHT22;4673;53.458;9.940;2024-03-06T16:03:27;6.80;9.20
9271;DHT22;4673;53.458;9.940;2024-03-06T16:05:52;6.70;9.20
9271;DHT22;4673;53.458;9.940;2024-03-06T16:08:18;6.70;9.60
9271;DHT22;4673;53.458;9.940;2024-03-06T16:10:44;6.60;9.40
9271;DHT22;4673;53.458;9.940;2024-03-06T16:13:10;6.60;9.70
9271;DHT22;4673;53.458;9.940;2024-03-06T16:15:36;6.60;9.80
9271;DHT22;4673;53.458;9.940;2024-03-06T16:18:02;6.50;10.10
9271;DHT22;4673;53.458;9.940;2024-03-06T16:20:27;6.40;9.90
9271;DHT22;4673;53.458;9.940;2024-03-06T16:22:53;6.40;10.10
9271;DHT22;4673;53.458;9.940;2024-03-06T16:25:18;6.40;10.60